sensor_id;sensor_type;location;lat;lon;timestamp;temperature;humidity
65470;DHT22;52067;50.710;14.492;2023-04-08T00:00:18;4.31;86.73
65470;DHT22;52067;50.710;14.492;2023-04-08T00:02:44;4.30;86.78
65470;DHT22;52067;50.710;14.492;2023-04-08T00:05:10;4.44;86.89
65470;DHT22;52067;50.710;14.492;2023-04-08T00:07:35;4.32;86.60
65470;DHT22;52067;50.710;14.492;2023-04-08T00:10:01;4.18;87.00
65470;DHT22;52067;50.710;14.492;2023-04-08T00:12:27;4.07;87.62
65470;DHT22;52067;50.710;14.492;2023-04-08T00:14:52;3.95;87.62
65470;DHT22;52067;50.710;14.492;2023-04-08T00:17:17;3.94;87.91
65470;DHT22;52067;50.710;14.492;2023-04-08T00:19:43;3.76;88.39
65470;DHT22;52067;50.710;14.492;2023-04-08T00:22:09;3.73;88.75
65470;DHT22;52067;50.710;14.492;2023-04-08T00:24:35;3.72;88.85
65470;DHT22;52067;50.710;14.492;2023-04-08T00:27:01;3.72;88.91
65470;DHT22;52067;50.710;14.492;2023-04-08T00:29:27;3.66;89.10
65470;DHT22;52067;50.710;14.492;2023-04-08T00:31:52;3.66;89.58
65470;DHT22;52067;50.710;14.492;2023-04-08T00:34:18;3.67;89.33
65470;DHT22;52067;50.710;14.492;2023-04-08T00:36:44;3.67;89.35
65470;DHT22;52067;50.710;14.492;2023-04-08T00:39:10;3.66;89.39
65470;DHT22;52067;50.710;14.492;2023-04-08T00:41:35;3.72;89.47
65470;DHT22;52067;50.710;14.492;2023-04-08T00:44:01;3.72;89.54
65470;DHT22;52067;50.710;14.492;2023-04-08T00:46:27;3.73;89.51
65470;DHT22;52067;50.710;14.492;2023-04-08T00:48:53;3.65;89.95
65470;DHT22;52067;50.710;14.492;2023-04-08T00:51:18;3.66;90.32
65470;DHT22;52067;50.710;14.492;2023-04-08T00:53:44;3.69;89.95
65470;DHT22;52067;50.710;14.492;2023-04-08T00:56:10;3.66;89.89
65470;DHT22;52067;50.710;14.492;2023-04-08T00:58:35;3.72;90.04
65470;DHT22;52067;50.710;14.492;2023-04-08T01:01:15;3.69;90.01
65470;DHT22;52067;50.710;14.492;2023-04-08T01:03:51;3.66;90.37
65470;DHT22;52067;50.710;14.492;2023-04-08T01:06:31;3.74;90.33
65470;DHT22;52067;50.710;14.492;2023-04-08T01:08:59;3.77;89.94
65470;DHT22;52067;50.710;14.492;2023-04-08T01:11:28;3.74;90.10
65470;DHT22;52067;50.710;14.492;2023-04-08T01:13:56;3.79;90.34
65470;DHT22;52067;50.710;14.492;2023-04-08T01:16:23;3.84;90.09
65470;DHT22;52067;50.710;14.492;2023-04-08T01:18:50;3.80;89.90
65470;DHT22;52067;50.710;14.492;2023-04-08T01:21:17;3.76;90.15
65470;DHT22;52067;50.710;14.492;2023-04-08T01:26:26;3.77;90.43
65470;DHT22;52067;50.710;14.492;2023-04-08T01:28:56;3.76;90.33
65470;DHT22;52067;50.710;14.492;2023-04-08T01:31:24;3.63;90.80
65470;DHT22;52067;50.710;14.492;2023-04-08T01:33:50;3.74;90.61
65470;DHT22;52067;50.710;14.492;2023-04-08T01:36:16;3.84;90.45
65470;DHT22;52067;50.710;14.492;2023-04-08T01:38:42;3.80;90.34
65470;DHT22;52067;50.710;14.492;2023-04-08T01:41:09;3.87;90.26
65470;DHT22;52067;50.710;14.492;2023-04-08T01:43:35;3.95;90.32
65470;DHT22;52067;50.710;14.492;2023-04-08T01:46:02;4.01;90.11
65470;DHT22;52067;50.710;14.492;2023-04-08T01:48:28;3.86;89.92
65470;DHT22;52067;50.710;14.492;2023-04-08T01:50:54;3.82;90.18
65470;DHT22;52067;50.710;14.492;2023-04-08T01:53:21;3.87;90.37
65470;DHT22;52067;50.710;14.492;2023-04-08T01:55:48;3.90;90.38
65470;DHT22;52067;50.710;14.492;2023-04-08T01:58:19;3.86;90.25
65470;DHT22;52067;50.710;14.492;2023-04-08T02:00:46;3.93;90.27
65470;DHT22;52067;50.710;14.492;2023-04-08T02:03:12;3.94;90.01
65470;DHT22;52067;50.710;14.492;2023-04-08T02:05:39;4.07;89.88
65470;DHT22;52067;50.710;14.492;2023-04-08T02:08:05;4.05;89.65
65470;DHT22;52067;50.710;14.492;2023-04-08T02:10:30;4.05;89.49
65470;DHT22;52067;50.710;14.492;2023-04-08T02:12:56;4.21;89.41
65470;DHT22;52067;50.710;14.492;2023-04-08T02:15:21;4.22;89.09
65470;DHT22;52067;50.710;14.492;2023-04-08T02:17:54;4.34;89.17
65470;DHT22;52067;50.710;14.492;2023-04-08T02:20:21;4.41;88.64
65470;DHT22;52067;50.710;14.492;2023-04-08T02:22:49;4.55;88.54
65470;DHT22;52067;50.710;14.492;2023-04-08T02:25:21;4.49;88.14
65470;DHT22;52067;50.710;14.492;2023-04-08T02:27:48;4.44;88.38
65470;DHT22;52067;50.710;14.492;2023-04-08T02:30:14;4.44;88.54
65470;DHT22;52067;50.710;14.492;2023-04-08T02:32:41;4.34;87.73
65470;DHT22;52067;50.710;14.492;2023-04-08T02:35:08;4.27;88.15
65470;DHT22;52067;50.710;14.492;2023-04-08T02:37:35;4.24;88.73
65470;DHT22;52067;50.710;14.492;2023-04-08T02:40:00;4.15;88.67
65470;DHT22;52067;50.710;14.492;2023-04-08T02:42:26;4.00;88.90
65470;DHT22;52067;50.710;14.492;2023-04-08T02:44:51;3.93;89.24
65470;DHT22;52067;50.710;14.492;2023-04-08T02:47:16;3.89;89.51
65470;DHT22;52067;50.710;14.492;2023-04-08T02:49:42;3.86;89.57
65470;DHT22;52067;50.710;14.492;2023-04-08T02:52:07;3.84;89.64
65470;DHT22;52067;50.710;14.492;2023-04-08T02:54:33;3.82;89.86
65470;DHT22;52067;50.710;14.492;2023-04-08T02:56:58;3.80;90.06
65470;DHT22;52067;50.710;14.492;2023-04-08T02:59:23;3.79;90.28
65470;DHT22;52067;50.710;14.492;2023-04-08T03:01:49;3.73;90.41
65470;DHT22;52067;50.710;14.492;2023-04-08T03:04:15;3.76;90.44
65470;DHT22;52067;50.710;14.492;2023-04-08T03:06:40;3.76;90.46
65470;DHT22;52067;50.710;14.492;2023-04-08T03:09:06;3.74;90.59
65470;DHT22;52067;50.710;14.492;2023-04-08T03:11:31;3.77;90.61
65470;DHT22;52067;50.710;14.492;2023-04-08T03:13:57;3.74;90.64
65470;DHT22;52067;50.710;14.492;2023-04-08T03:16:22;3.76;90.58
65470;DHT22;52067;50.710;14.492;2023-04-08T03:18:51;3.77;90.69
65470;DHT22;52067;50.710;14.492;2023-04-08T03:21:16;3.89;90.46
65470;DHT22;52067;50.710;14.492;2023-04-08T03:23:42;3.93;90.22
65470;DHT22;52067;50.710;14.492;2023-04-08T03:26:08;3.94;90.02
65470;DHT22;52067;50.710;14.492;2023-04-08T03:28:33;4.00;89.79
65470;DHT22;52067;50.710;14.492;2023-04-08T03:30:58;4.08;89.67
65470;DHT22;52067;50.710;14.492;2023-04-08T03:33:25;4.13;89.43
65470;DHT22;52067;50.710;14.492;2023-04-08T03:35:52;4.14;89.27
65470;DHT22;52067;50.710;14.492;2023-04-08T03:38:17;4.13;89.58
65470;DHT22;52067;50.710;14.492;2023-04-08T03:40:43;4.18;89.55
65470;DHT22;52067;50.710;14.492;2023-04-08T03:43:08;4.24;89.46
65470;DHT22;52067;50.710;14.492;2023-04-08T03:45:35;4.35;89.38
65470;DHT22;52067;50.710;14.492;2023-04-08T03:48:01;4.38;89.40
65470;DHT22;52067;50.710;14.492;2023-04-08T03:50:26;4.41;89.31
65470;DHT22;52067;50.710;14.492;2023-04-08T03:52:52;4.31;89.16
65470;DHT22;52067;50.710;14.492;2023-04-08T03:55:17;4.22;89.40
65470;DHT22;52067;50.710;14.492;2023-04-08T03:57:43;4.15;89.68
65470;DHT22;52067;50.710;14.492;2023-04-08T04:00:09;4.14;89.93
65470;DHT22;52067;50.710;14.492;2023-04-08T04:02:35;4.07;90.00
65470;DHT22;52067;50.710;14.492;2023-04-08T04:05:00;4.10;90.07
65470;DHT22;52067;50.710;14.492;2023-04-08T04:07:26;4.14;90.00
65470;DHT22;52067;50.710;14.492;2023-04-08T04:09:51;4.20;89.44
65470;DHT22;52067;50.710;14.492;2023-04-08T04:12:20;4.28;89.53
65470;DHT22;52067;50.710;14.492;2023-04-08T04:14:45;4.41;89.30
65470;DHT22;52067;50.710;14.492;2023-04-08T04:17:11;4.58;88.98
65470;DHT22;52067;50.710;14.492;2023-04-08T04:19:36;4.58;88.32
65470;DHT22;52067;50.710;14.492;2023-04-08T04:22:02;4.55;88.88
65470;DHT22;52067;50.710;14.492;2023-04-08T04:24:27;4.51;88.20
65470;DHT22;52067;50.710;14.492;2023-04-08T04:26:52;4.61;88.17
65470;DHT22;52067;50.710;14.492;2023-04-08T04:29:18;4.59;88.23
65470;DHT22;52067;50.710;14.492;2023-04-08T04:31:43;4.66;88.06
65470;DHT22;52067;50.710;14.492;2023-04-08T04:34:08;4.59;88.23
65470;DHT22;52067;50.710;14.492;2023-04-08T04:36:34;4.68;88.33
65470;DHT22;52067;50.710;14.492;2023-04-08T04:39:00;4.66;87.87
65470;DHT22;52067;50.710;14.492;2023-04-08T04:41:25;4.71;88.18
65470;DHT22;52067;50.710;14.492;2023-04-08T04:43:51;4.76;87.97
65470;DHT22;52067;50.710;14.492;2023-04-08T04:46:17;4.71;88.33
65470;DHT22;52067;50.710;14.492;2023-04-08T04:48:42;4.83;88.06
65470;DHT22;52067;50.710;14.492;2023-04-08T04:51:07;4.90;87.89
65470;DHT22;52067;50.710;14.492;2023-04-08T04:53:33;4.82;88.04
65470;DHT22;52067;50.710;14.492;2023-04-08T04:55:58;4.82;88.20
65470;DHT22;52067;50.710;14.492;2023-04-08T04:58:25;4.77;88.81
65470;DHT22;52067;50.710;14.492;2023-04-08T05:00:51;4.90;88.47
65470;DHT22;52067;50.710;14.492;2023-04-08T05:03:16;4.97;88.21
65470;DHT22;52067;50.710;14.492;2023-04-08T05:05:42;5.10;87.58
65470;DHT22;52067;50.710;14.492;2023-04-08T05:08:07;4.99;87.77
65470;DHT22;52067;50.710;14.492;2023-04-08T05:10:32;5.03;88.01
65470;DHT22;52067;50.710;14.492;2023-04-08T05:12:58;5.09;87.66
65470;DHT22;52067;50.710;14.492;2023-04-08T05:15:23;4.96;87.66
65470;DHT22;52067;50.710;14.492;2023-04-08T05:17:49;4.84;88.58
65470;DHT22;52067;50.710;14.492;2023-04-08T05:20:14;4.90;88.29
65470;DHT22;52067;50.710;14.492;2023-04-08T05:22:39;4.97;88.24
65470;DHT22;52067;50.710;14.492;2023-04-08T05:25:07;5.23;87.87
65470;DHT22;52067;50.710;14.492;2023-04-08T05:27:32;5.28;87.46
65470;DHT22;52067;50.710;14.492;2023-04-08T05:29:57;5.38;87.14
65470;DHT22;52067;50.710;14.492;2023-04-08T05:32:23;5.34;87.10
65470;DHT22;52067;50.710;14.492;2023-04-08T05:34:48;5.20;88.43
65470;DHT22;52067;50.710;14.492;2023-04-08T05:37:14;5.47;87.78
65470;DHT22;52067;50.710;14.492;2023-04-08T05:39:39;5.31;87.40
65470;DHT22;52067;50.710;14.492;2023-04-08T05:42:04;5.14;88.44
65470;DHT22;52067;50.710;14.492;2023-04-08T05:44:30;5.03;88.80
65470;DHT22;52067;50.710;14.492;2023-04-08T05:46:55;5.11;89.08
65470;DHT22;52067;50.710;14.492;2023-04-08T05:49:21;5.16;89.44
65470;DHT22;52067;50.710;14.492;2023-04-08T05:51:47;5.44;88.87
65470;DHT22;52067;50.710;14.492;2023-04-08T05:54:13;5.38;88.58
65470;DHT22;52067;50.710;14.492;2023-04-08T05:56:38;5.54;88.74
65470;DHT22;52067;50.710;14.492;2023-04-08T05:59:03;5.54;88.21
65470;DHT22;52067;50.710;14.492;2023-04-08T06:01:29;5.73;87.90
65470;DHT22;52067;50.710;14.492;2023-04-08T06:03:54;5.58;88.35
65470;DHT22;52067;50.710;14.492;2023-04-08T06:06:21;5.55;88.58
65470;DHT22;52067;50.710;14.492;2023-04-08T06:08:47;5.78;87.90
65470;DHT22;52067;50.710;14.492;2023-04-08T06:11:13;5.71;88.46
65470;DHT22;52067;50.710;14.492;2023-04-08T06:13:38;5.72;87.89
65470;DHT22;52067;50.710;14.492;2023-04-08T06:16:22;5.95;87.64
65470;DHT22;52067;50.710;14.492;2023-04-08T06:18:48;6.10;86.89
65470;DHT22;52067;50.710;14.492;2023-04-08T06:21:14;6.27;86.41
65470;DHT22;52067;50.710;14.492;2023-04-08T06:23:39;5.93;87.61
65470;DHT22;52067;50.710;14.492;2023-04-08T06:26:05;6.10;87.56
65470;DHT22;52067;50.710;14.492;2023-04-08T06:28:31;6.07;86.48
65470;DHT22;52067;50.710;14.492;2023-04-08T06:30:58;5.86;86.78
65470;DHT22;52067;50.710;14.492;2023-04-08T06:33:23;5.79;87.26
65470;DHT22;52067;50.710;14.492;2023-04-08T06:35:49;6.10;87.05
65470;DHT22;52067;50.710;14.492;2023-04-08T06:38:14;5.90;86.32
65470;DHT22;52067;50.710;14.492;2023-04-08T06:40:40;5.85;86.53
65470;DHT22;52067;50.710;14.492;2023-04-08T06:43:06;5.81;85.49
65470;DHT22;52067;50.710;14.492;2023-04-08T06:45:32;5.89;85.16
65470;DHT22;52067;50.710;14.492;2023-04-08T06:47:58;5.93;84.87
65470;DHT22;52067;50.710;14.492;2023-04-08T06:50:23;6.03;84.08
65470;DHT22;52067;50.710;14.492;2023-04-08T06:52:48;6.14;84.02
65470;DHT22;52067;50.710;14.492;2023-04-08T06:55:14;6.29;83.34
65470;DHT22;52067;50.710;14.492;2023-04-08T06:57:39;6.20;83.30
65470;DHT22;52067;50.710;14.492;2023-04-08T07:00:05;6.27;83.39
65470;DHT22;52067;50.710;14.492;2023-04-08T07:02:30;6.26;82.98
65470;DHT22;52067;50.710;14.492;2023-04-08T07:04:57;6.50;82.18
65470;DHT22;52067;50.710;14.492;2023-04-08T07:07:22;6.82;82.29
65470;DHT22;52067;50.710;14.492;2023-04-08T07:09:49;6.64;81.60
65470;DHT22;52067;50.710;14.492;2023-04-08T07:12:14;6.88;81.12
65470;DHT22;52067;50.710;14.492;2023-04-08T07:14:40;7.00;79.58
65470;DHT22;52067;50.710;14.492;2023-04-08T07:17:05;6.85;81.59
65470;DHT22;52067;50.710;14.492;2023-04-08T07:19:31;6.91;81.72
65470;DHT22;52067;50.710;14.492;2023-04-08T07:21:56;6.79;80.66
65470;DHT22;52067;50.710;14.492;2023-04-08T07:24:22;6.89;81.81
65470;DHT22;52067;50.710;14.492;2023-04-08T07:26:47;6.85;81.17
65470;DHT22;52067;50.710;14.492;2023-04-08T07:29:13;6.51;81.78
65470;DHT22;52067;50.710;14.492;2023-04-08T07:31:42;6.91;80.68
65470;DHT22;52067;50.710;14.492;2023-04-08T07:34:07;7.15;81.36
65470;DHT22;52067;50.710;14.492;2023-04-08T07:36:32;7.27;79.54
65470;DHT22;52067;50.710;14.492;2023-04-08T07:38:58;7.36;79.21
65470;DHT22;52067;50.710;14.492;2023-04-08T07:41:23;7.19;79.20
65470;DHT22;52067;50.710;14.492;2023-04-08T07:43:48;7.24;78.18
65470;DHT22;52067;50.710;14.492;2023-04-08T07:46:14;7.20;80.14
65470;DHT22;52067;50.710;14.492;2023-04-08T07:48:39;7.34;78.96
65470;DHT22;52067;50.710;14.492;2023-04-08T07:51:06;7.42;78.77
65470;DHT22;52067;50.710;14.492;2023-04-08T07:53:32;7.46;78.08
65470;DHT22;52067;50.710;14.492;2023-04-08T07:55:58;7.56;79.28
65470;DHT22;52067;50.710;14.492;2023-04-08T07:58:24;7.57;78.19
65470;DHT22;52067;50.710;14.492;2023-04-08T08:00:49;7.70;77.70
65470;DHT22;52067;50.710;14.492;2023-04-08T08:03:15;7.81;77.59
65470;DHT22;52067;50.710;14.492;2023-04-08T08:05:41;8.16;75.64
65470;DHT22;52067;50.710;14.492;2023-04-08T08:08:07;8.26;76.08
65470;DHT22;52067;50.710;14.492;2023-04-08T08:10:32;8.43;76.87
65470;DHT22;52067;50.710;14.492;2023-04-08T08:12:58;8.61;77.91
65470;DHT22;52067;50.710;14.492;2023-04-08T08:15:23;8.80;73.97
65470;DHT22;52067;50.710;14.492;2023-04-08T08:17:49;8.47;73.95
65470;DHT22;52067;50.710;14.492;2023-04-08T08:20:15;8.64;73.49
65470;DHT22;52067;50.710;14.492;2023-04-08T08:22:43;9.03;73.44
65470;DHT22;52067;50.710;14.492;2023-04-08T08:25:09;8.50;73.24
65470;DHT22;52067;50.710;14.492;2023-04-08T08:27:35;7.81;75.73
65470;DHT22;52067;50.710;14.492;2023-04-08T08:30:01;7.48;75.18
65470;DHT22;52067;50.710;14.492;2023-04-08T08:32:27;7.43;74.86
65470;DHT22;52067;50.710;14.492;2023-04-08T08:34:55;7.40;75.94
65470;DHT22;52067;50.710;14.492;2023-04-08T08:37:21;7.81;75.20
65470;DHT22;52067;50.710;14.492;2023-04-08T08:39:46;8.01;74.10
65470;DHT22;52067;50.710;14.492;2023-04-08T08:42:22;8.01;74.43
65470;DHT22;52067;50.710;14.492;2023-04-08T08:44:48;7.95;75.67
65470;DHT22;52067;50.710;14.492;2023-04-08T08:47:14;8.47;74.49
65470;DHT22;52067;50.710;14.492;2023-04-08T08:49:40;8.71;75.43
65470;DHT22;52067;50.710;14.492;2023-04-08T08:52:06;8.74;71.77
65470;DHT22;52067;50.710;14.492;2023-04-08T08:54:31;9.26;71.29
65470;DHT22;52067;50.710;14.492;2023-04-08T08:56:56;8.97;70.68
65470;DHT22;52067;50.710;14.492;2023-04-08T08:59:22;9.32;72.59
65470;DHT22;52067;50.710;14.492;2023-04-08T09:01:47;9.62;70.08
65470;DHT22;52067;50.710;14.492;2023-04-08T09:04:15;9.26;68.53
65470;DHT22;52067;50.710;14.492;2023-04-08T09:06:41;9.08;69.86
65470;DHT22;52067;50.710;14.492;2023-04-08T09:09:07;8.73;71.33
65470;DHT22;52067;50.710;14.492;2023-04-08T09:11:41;9.01;71.20
65470;DHT22;52067;50.710;14.492;2023-04-08T09:14:18;8.95;70.30
65470;DHT22;52067;50.710;14.492;2023-04-08T09:16:43;8.66;71.68
65470;DHT22;52067;50.710;14.492;2023-04-08T09:19:10;8.89;70.97
65470;DHT22;52067;50.710;14.492;2023-04-08T09:21:36;9.07;69.76
65470;DHT22;52067;50.710;14.492;2023-04-08T09:24:02;9.28;69.43
65470;DHT22;52067;50.710;14.492;2023-04-08T09:26:28;9.07;69.52
65470;DHT22;52067;50.710;14.492;2023-04-08T09:29:11;9.04;69.49
65470;DHT22;52067;50.710;14.492;2023-04-08T09:31:38;8.67;70.60
65470;DHT22;52067;50.710;14.492;2023-04-08T09:34:15;8.61;71.69
65470;DHT22;52067;50.710;14.492;2023-04-08T09:36:42;8.80;71.85
65470;DHT22;52067;50.710;14.492;2023-04-08T09:39:08;8.67;72.71
65470;DHT22;52067;50.710;14.492;2023-04-08T09:41:35;9.04;70.60
65470;DHT22;52067;50.710;14.492;2023-04-08T09:44:09;9.25;72.32
65470;DHT22;52067;50.710;14.492;2023-04-08T09:49:37;8.42;71.84
65470;DHT22;52067;50.710;14.492;2023-04-08T09:52:20;8.76;71.49
65470;DHT22;52067;50.710;14.492;2023-04-08T09:54:54;8.24;71.51
65470;DHT22;52067;50.710;14.492;2023-04-08T09:57:26;8.03;72.44
65470;DHT22;52067;50.710;14.492;2023-04-08T10:00:07;8.13;72.71
65470;DHT22;52067;50.710;14.492;2023-04-08T10:02:42;8.56;72.66
65470;DHT22;52067;50.710;14.492;2023-04-08T10:05:11;8.52;71.53
65470;DHT22;52067;50.710;14.492;2023-04-08T10:07:38;10.24;69.14
65470;DHT22;52067;50.710;14.492;2023-04-08T10:10:04;11.37;66.99
65470;DHT22;52067;50.710;14.492;2023-04-08T10:12:31;12.83;62.76
65470;DHT22;52067;50.710;14.492;2023-04-08T10:15:31;12.47;63.88
65470;DHT22;52067;50.710;14.492;2023-04-08T10:23:10;13.20;56.43
65470;DHT22;52067;50.710;14.492;2023-04-08T10:25:38;10.44;63.62
65470;DHT22;52067;50.710;14.492;2023-04-08T10:30:45;9.93;66.84
65470;DHT22;52067;50.710;14.492;2023-04-08T10:38:13;10.66;63.38
65470;DHT22;52067;50.710;14.492;2023-04-08T10:40:39;9.79;67.26
65470;DHT22;52067;50.710;14.492;2023-04-08T10:43:07;9.39;66.34
65470;DHT22;52067;50.710;14.492;2023-04-08T10:45:33;9.10;67.07
65470;DHT22;52067;50.710;14.492;2023-04-08T10:48:20;9.12;68.91
65470;DHT22;52067;50.710;14.492;2023-04-08T10:50:55;9.10;69.81
65470;DHT22;52067;50.710;14.492;2023-04-08T10:55:54;8.77;69.48
65470;DHT22;52067;50.710;14.492;2023-04-08T10:58:27;9.11;67.24
65470;DHT22;52067;50.710;14.492;2023-04-08T11:00:52;9.26;67.64
65470;DHT22;52067;50.710;14.492;2023-04-08T11:03:18;9.32;67.03
65470;DHT22;52067;50.710;14.492;2023-04-08T11:05:43;9.55;66.31
65470;DHT22;52067;50.710;14.492;2023-04-08T11:08:09;9.15;68.55
65470;DHT22;52067;50.710;14.492;2023-04-08T11:10:38;9.08;68.30
65470;DHT22;52067;50.710;14.492;2023-04-08T11:13:06;8.89;69.44
65470;DHT22;52067;50.710;14.492;2023-04-08T11:15:33;8.95;67.75
65470;DHT22;52067;50.710;14.492;2023-04-08T11:18:01;8.61;69.56
65470;DHT22;52067;50.710;14.492;2023-04-08T11:20:27;8.67;69.38
65470;DHT22;52067;50.710;14.492;2023-04-08T11:22:53;8.66;69.35
65470;DHT22;52067;50.710;14.492;2023-04-08T11:25:19;8.77;70.13
65470;DHT22;52067;50.710;14.492;2023-04-08T11:27:45;8.78;69.65
65470;DHT22;52067;50.710;14.492;2023-04-08T11:30:12;8.98;67.63
65470;DHT22;52067;50.710;14.492;2023-04-08T11:32:38;9.11;68.73
65470;DHT22;52067;50.710;14.492;2023-04-08T11:35:04;9.14;67.64
65470;DHT22;52067;50.710;14.492;2023-04-08T11:37:37;9.19;66.93
65470;DHT22;52067;50.710;14.492;2023-04-08T11:40:09;9.21;68.69
65470;DHT22;52067;50.710;14.492;2023-04-08T11:42:35;9.05;67.82
65470;DHT22;52067;50.710;14.492;2023-04-08T11:45:00;9.28;67.90
65470;DHT22;52067;50.710;14.492;2023-04-08T11:47:30;9.57;67.48
65470;DHT22;52067;50.710;14.492;2023-04-08T11:49:56;8.97;70.10
65470;DHT22;52067;50.710;14.492;2023-04-08T11:52:21;8.71;69.70
65470;DHT22;52067;50.710;14.492;2023-04-08T11:54:47;9.10;69.62
65470;DHT22;52067;50.710;14.492;2023-04-08T11:57:12;8.88;68.94
65470;DHT22;52067;50.710;14.492;2023-04-08T11:59:39;9.31;68.44
65470;DHT22;52067;50.710;14.492;2023-04-08T12:02:05;8.83;69.34
65470;DHT22;52067;50.710;14.492;2023-04-08T12:04:30;8.78;68.78
65470;DHT22;52067;50.710;14.492;2023-04-08T12:06:56;9.14;70.35
65470;DHT22;52067;50.710;14.492;2023-04-08T12:09:21;9.36;69.36
65470;DHT22;52067;50.710;14.492;2023-04-08T12:11:47;9.40;68.80
65470;DHT22;52067;50.710;14.492;2023-04-08T12:14:13;9.25;70.24
65470;DHT22;52067;50.710;14.492;2023-04-08T12:16:38;9.11;70.64
65470;DHT22;52067;50.710;14.492;2023-04-08T12:19:04;8.88;72.88
65470;DHT22;52067;50.710;14.492;2023-04-08T12:21:29;8.67;71.98
65470;DHT22;52067;50.710;14.492;2023-04-08T12:23:56;9.10;71.24
65470;DHT22;52067;50.710;14.492;2023-04-08T12:26:21;8.94;71.69
65470;DHT22;52067;50.710;14.492;2023-04-08T12:28:47;8.50;71.21
65470;DHT22;52067;50.710;14.492;2023-04-08T12:31:12;8.19;72.30
65470;DHT22;52067;50.710;14.492;2023-04-08T12:33:38;8.43;72.55
65470;DHT22;52067;50.710;14.492;2023-04-08T12:36:03;8.29;71.95
65470;DHT22;52067;50.710;14.492;2023-04-08T12:38:29;8.50;71.70
65470;DHT22;52067;50.710;14.492;2023-04-08T12:40:54;8.43;72.81
65470;DHT22;52067;50.710;14.492;2023-04-08T12:43:20;8.66;71.91
65470;DHT22;52067;50.710;14.492;2023-04-08T12:45:46;8.84;70.90
65470;DHT22;52067;50.710;14.492;2023-04-08T12:48:12;8.63;72.07
65470;DHT22;52067;50.710;14.492;2023-04-08T12:50:38;8.32;72.17
65470;DHT22;52067;50.710;14.492;2023-04-08T12:53:03;8.67;71.94
65470;DHT22;52067;50.710;14.492;2023-04-08T12:55:28;8.63;71.17
65470;DHT22;52067;50.710;14.492;2023-04-08T12:57:54;8.78;71.27
65470;DHT22;52067;50.710;14.492;2023-04-08T13:00:19;8.98;70.21
65470;DHT22;52067;50.710;14.492;2023-04-08T13:02:45;9.12;69.48
65470;DHT22;52067;50.710;14.492;2023-04-08T13:05:11;9.21;69.35
65470;DHT22;52067;50.710;14.492;2023-04-08T13:07:36;9.32;70.18
65470;DHT22;52067;50.710;14.492;2023-04-08T13:10:02;9.21;70.76
65470;DHT22;52067;50.710;14.492;2023-04-08T13:12:28;8.57;70.22
65470;DHT22;52067;50.710;14.492;2023-04-08T13:14:54;8.63;71.87
65470;DHT22;52067;50.710;14.492;2023-04-08T13:17:19;8.87;70.99
65470;DHT22;52067;50.710;14.492;2023-04-08T13:19:45;9.01;70.48
65470;DHT22;52067;50.710;14.492;2023-04-08T13:22:12;9.16;70.14
65470;DHT22;52067;50.710;14.492;2023-04-08T13:24:38;9.08;69.80
65470;DHT22;52067;50.710;14.492;2023-04-08T13:27:03;8.66;70.79
65470;DHT22;52067;50.710;14.492;2023-04-08T13:29:29;8.85;70.42
65470;DHT22;52067;50.710;14.492;2023-04-08T13:31:54;8.77;70.71
65470;DHT22;52067;50.710;14.492;2023-04-08T13:34:20;8.64;71.68
65470;DHT22;52067;50.710;14.492;2023-04-08T13:36:45;8.57;71.73
65470;DHT22;52067;50.710;14.492;2023-04-08T13:39:10;8.54;72.15
65470;DHT22;52067;50.710;14.492;2023-04-08T13:41:36;8.63;71.84
65470;DHT22;52067;50.710;14.492;2023-04-08T13:44:01;8.45;71.85
65470;DHT22;52067;50.710;14.492;2023-04-08T13:46:27;8.61;72.00
65470;DHT22;52067;50.710;14.492;2023-04-08T13:48:52;8.45;72.14
65470;DHT22;52067;50.710;14.492;2023-04-08T13:51:17;8.33;72.21
65470;DHT22;52067;50.710;14.492;2023-04-08T13:53:43;8.49;71.71
65470;DHT22;52067;50.710;14.492;2023-04-08T13:56:08;8.52;70.95
65470;DHT22;52067;50.710;14.492;2023-04-08T13:58:33;8.49;72.65
65470;DHT22;52067;50.710;14.492;2023-04-08T14:00:59;8.84;72.59
65470;DHT22;52067;50.710;14.492;2023-04-08T14:03:24;8.64;71.47
65470;DHT22;52067;50.710;14.492;2023-04-08T14:05:50;8.63;71.36
65470;DHT22;52067;50.710;14.492;2023-04-08T14:08:16;8.21;72.44
65470;DHT22;52067;50.710;14.492;2023-04-08T14:10:49;8.18;72.31
65470;DHT22;52067;50.710;14.492;2023-04-08T14:13:14;8.32;71.71
65470;DHT22;52067;50.710;14.492;2023-04-08T14:15:40;8.30;72.14
65470;DHT22;52067;50.710;14.492;2023-04-08T14:18:05;8.12;73.60
65470;DHT22;52067;50.710;14.492;2023-04-08T14:20:31;8.09;73.38
65470;DHT22;52067;50.710;14.492;2023-04-08T14:22:56;8.15;73.13
65470;DHT22;52067;50.710;14.492;2023-04-08T14:25:22;8.03;73.30
65470;DHT22;52067;50.710;14.492;2023-04-08T14:27:47;8.24;72.98
65470;DHT22;52067;50.710;14.492;2023-04-08T14:30:13;8.49;71.84
65470;DHT22;52067;50.710;14.492;2023-04-08T14:32:38;7.99;71.74
65470;DHT22;52067;50.710;14.492;2023-04-08T14:35:04;7.98;72.23
65470;DHT22;52067;50.710;14.492;2023-04-08T14:37:29;7.95;72.01
65470;DHT22;52067;50.710;14.492;2023-04-08T14:39:55;7.82;71.87
65470;DHT22;52067;50.710;14.492;2023-04-08T14:42:20;7.97;72.82
65470;DHT22;52067;50.710;14.492;2023-04-08T14:44:46;8.22;71.81
65470;DHT22;52067;50.710;14.492;2023-04-08T14:47:12;8.28;70.69
65470;DHT22;52067;50.710;14.492;2023-04-08T14:49:37;7.71;73.37
65470;DHT22;52067;50.710;14.492;2023-04-08T14:52:02;7.99;72.78
65470;DHT22;52067;50.710;14.492;2023-04-08T14:54:28;7.92;72.95
65470;DHT22;52067;50.710;14.492;2023-04-08T14:56:53;7.67;72.85
65470;DHT22;52067;50.710;14.492;2023-04-08T14:59:18;7.98;73.01
65470;DHT22;52067;50.710;14.492;2023-04-08T15:01:44;8.12;72.67
65470;DHT22;52067;50.710;14.492;2023-04-08T15:04:09;8.21;70.83
65470;DHT22;52067;50.710;14.492;2023-04-08T15:06:35;8.06;71.34
65470;DHT22;52067;50.710;14.492;2023-04-08T15:09:03;8.03;71.99
65470;DHT22;52067;50.710;14.492;2023-04-08T15:11:28;7.99;71.77
65470;DHT22;52067;50.710;14.492;2023-04-08T15:13:53;7.98;71.91
65470;DHT22;52067;50.710;14.492;2023-04-08T15:16:19;8.16;70.68
65470;DHT22;52067;50.710;14.492;2023-04-08T15:18:44;7.99;70.54
65470;DHT22;52067;50.710;14.492;2023-04-08T15:21:10;8.19;71.22
65470;DHT22;52067;50.710;14.492;2023-04-08T15:23:35;8.08;70.76
65470;DHT22;52067;50.710;14.492;2023-04-08T15:26:06;7.99;71.02
65470;DHT22;52067;50.710;14.492;2023-04-08T15:28:31;8.12;71.31
65470;DHT22;52067;50.710;14.492;2023-04-08T15:30:56;8.28;69.69
65470;DHT22;52067;50.710;14.492;2023-04-08T15:33:22;8.32;70.54
65470;DHT22;52067;50.710;14.492;2023-04-08T15:35:47;8.29;72.28
65470;DHT22;52067;50.710;14.492;2023-04-08T15:38:13;8.05;71.47
65470;DHT22;52067;50.710;14.492;2023-04-08T15:40:38;8.08;71.84
65470;DHT22;52067;50.710;14.492;2023-04-08T15:43:04;7.85;71.70
65470;DHT22;52067;50.710;14.492;2023-04-08T15:45:29;7.78;72.39